Latest Coastal Weather Observations for Smithton

IDV60701

Issued at 8:25 pm EST Thursday 2 October 2014 (issued every 10 minutes, with the page automatically refreshed every 10 minutes)

About coastal observations | Map of coastal stations | Coastal observations for VIC | Marine services | Other Formats
Station Details ID: 091292 Name: SMITHTON AERODROME Lat: -40.83 Lon: 145.08 Height: 7.5 m
Data from the previous 72 hours. | See also: Recent months at Smithton
Date/Time
EST
Temp

°C
Wind Pressure Rain
since 9am
mm
Weather Cloud Vis
km
Sea
Height
m
Swell
Dir
 
Speed
knots
Gust
knots
hPa Trend Height
m
Period
s
Dir
02/08:00pm 10.2 SW 9 12 1021.6 - 0.4 - - - - - - -
02/07:30pm 10.6 WSW 9 13 1021.1 - 0.4 - - - - - - -
02/07:00pm 10.2 WSW 11 16 1020.6 - 0.4 - - - - - - -
02/06:30pm 10.8 WSW 13 17 1020.3 - 0.4 - - - - - - -
02/06:00pm 11.3 WSW 13 16 1020.2 - 0.4 - - - - - - -
02/05:30pm 11.9 SW 16 22 1020.0 - 0.4 - - - - - - -
02/05:00pm 12.4 SW 17 27 1019.8 - 0.4 - - - - - - -
02/04:30pm 12.7 SW 16 21 1019.5 - 0.4 - - - - - - -
02/04:00pm 12.7 WSW 20 27 1019.6 - 0.4 - - - - - - -
02/03:30pm 14.4 SW 18 25 1019.3 - 0.4 - - - - - - -
02/03:00pm 12.7 SW 21 27 1019.2 - 0.4 - - - - - - -
02/02:30pm 13.5 SW 21 26 1019.0 - 0.4 - - - - - - -
02/02:00pm 13.1 SW 19 25 1019.1 - 0.4 - - - - - - -
02/01:30pm 15.1 SW 19 25 1018.9 - 0.2 - - - - - - -
02/01:00pm 13.1 WSW 19 29 1018.9 - 0.2 - - - - - - -
02/12:58pm 13.1 WSW 18 29 1018.8 - 0.2 - - - - - - -
02/12:30pm 13.9 SW 19 28 1019.0 - 0.2 - - - - - - -
02/12:25pm 14.1 SW 17 28 1018.9 - 0.2 - - - - - - -
02/12:00pm 13.1 WSW 19 26 1018.8 - 0.2 - - - - - - -
02/11:35am 13.0 SW 19 29 1018.9 - 0.2 - - - - - - -
02/11:30am 13.8 WSW 18 26 1018.8 - 0.2 - - - - - - -
02/11:15am 12.4 SW 19 29 1018.9 - 0.2 - - - - - - -
02/11:00am 13.7 WSW 20 27 1019.0 - 0.2 - - - - - - -
02/10:44am 13.0 WSW 15 25 1019.0 - 0.2 - - - - - - -
02/10:30am 12.9 WSW 18 23 1019.0 - 0.2 - - - - - - -
02/10:00am 13.4 SW 18 25 1019.1 - 0.2 - - - - - - -
02/09:30am 13.1 SW 18 26 1019.0 - 0.0 - - - - - - -
02/09:00am 12.1 WSW 17 25 1019.0 - 1.8 - - - - - - -
02/08:32am 12.3 WSW 17 27 1018.8 - 1.4 - - - - - - -
02/08:30am 12.1 WSW 16 22 1018.8 - 1.4 - - - - - - -
02/08:00am 12.1 WSW 17 24 1018.7 - 1.4 - - - - - - -
02/07:42am 11.2 WSW 15 25 1018.6 - 1.4 - - - - - - -
02/07:30am 11.6 WSW 14 18 1018.6 - 1.4 - - - - - - -
02/07:00am 10.8 WSW 11 14 1018.6 - 1.2 - - - - - - -
02/06:30am 10.6 WSW 13 19 1018.3 - 1.2 - - - - - - -
02/06:00am 10.5 WSW 12 16 1018.2 - 1.2 - - - - - - -
02/05:30am 10.5 WSW 13 17 1018.0 - 1.2 - - - - - - -
02/05:00am 10.5 WSW 16 23 1018.1 - 1.0 - - - - - - -
02/04:49am 10.6 WSW 16 26 1018.0 - 1.0 - - - - - - -
02/04:30am 10.5 WSW 13 18 1017.9 - 1.0 - - - - - - -
02/04:00am 11.0 WSW 16 21 1017.9 - 1.0 - - - - - - -
02/03:36am 11.1 W 15 26 1017.7 - 1.0 - - - - - - -
02/03:30am 11.0 W 13 16 1017.7 - 1.0 - - - - - - -
02/03:00am 11.0 W 14 21 1017.9 - 1.0 - - - - - - -
02/02:30am 10.9 WSW 13 18 1018.1 - 1.0 - - - - - - -
02/02:00am 11.0 W 15 20 1018.4 - 1.0 - - - - - - -
02/01:30am 10.9 W 18 23 1018.6 - 1.0 - - - - - - -
02/01:10am 11.2 WSW 17 27 1018.8 - 1.0 - - - - - - -
02/01:00am 11.1 W 16 23 1018.8 - 1.0 - - - - - - -
02/12:30am 11.1 W 15 21 1019.0 - 1.0 - - - - - - -
02/12:00am 10.9 W 16 23 1019.1 - 1.0 - - - - - - -
 
Date/Time
EST
Temp

°C
Wind Pressure Rain
since 9am
mm
Weather Cloud Vis
km
Sea
Height
m
Swell
Dir
 
Speed
knots
Gust
knots
hPa Trend Height
m
Period
s
Dir
01/11:30pm 11.1 W 14 20 1019.3 - 0.8 - - - - - - -
01/11:10pm 11.1 W 15 27 1019.3 - 0.8 - - - - - - -
01/11:00pm 11.1 W 12 17 1019.5 - 0.8 - - - - - - -
01/10:30pm 10.8 W 11 17 1019.7 - 0.6 - - - - - - -
01/10:00pm 11.0 W 10 14 1019.9 - 0.4 - - - - - - -
01/09:30pm 11.1 W 13 17 1020.1 - 0.4 - - - - - - -
01/09:00pm 11.3 W 15 21 1020.2 - 0.4 - - - - - - -
01/08:30pm 11.1 W 11 15 1020.2 - 0.4 - - - - - - -
01/08:00pm 11.0 W 11 15 1020.3 - 0.4 - - - - - - -
01/07:30pm 10.7 W 8 12 1020.4 - 0.4 - - - - - - -
01/07:00pm 10.6 W 11 15 1020.4 - 0.0 - - - - - - -
01/06:30pm 10.9 W 12 17 1020.2 - 0.0 - - - - - - -
01/06:00pm 11.4 W 11 15 1020.2 - 0.0 - - - - - - -
01/05:30pm 11.5 W 11 17 1020.1 - 0.0 - - - - - - -
01/05:00pm 11.6 W 15 19 1019.9 - 0.0 - - - - - - -
01/04:30pm 12.0 WSW 11 16 1019.8 - 0.0 - - - - - - -
01/04:00pm 12.0 WSW 15 20 1019.8 - 0.0 - - - - - - -
01/03:30pm 12.2 WSW 15 22 1019.8 - 0.0 - - - - - - -
01/03:00pm 12.4 WSW 17 24 1019.6 - 0.0 - - - - - - -
01/02:30pm 11.3 WSW 17 24 1019.6 - 0.0 - - - - - - -
01/02:00pm 13.1 WSW 19 27 1019.5 - 0.0 - - - - - - -
01/01:30pm 13.2 WSW 21 28 1019.7 - 0.0 - - - - - - -
01/01:00pm 12.8 WSW 21 25 1019.5 - 0.0 - - - - - - -
01/12:30pm 12.7 WSW 15 21 1019.4 - 0.0 - - - - - - -
01/12:00pm 12.0 WSW 20 26 1019.6 - 0.0 - - - - - - -
01/11:38am 12.3 WSW 20 30 1019.2 - 0.0 - - - - - - -
01/11:30am 13.4 W 16 25 1019.3 - 0.0 - - - - - - -
01/11:00am 13.1 WSW 19 25 1018.9 - 0.0 - - - - - - -
01/10:43am 12.4 SW 22 27 1019.0 - 0.0 - - - - - - -
01/10:30am 12.1 W 17 28 1019.1 - 0.0 - - - - - - -
01/10:00am 12.4 SW 17 26 1018.8 - 0.0 - - - - - - -
01/09:58am 11.7 SW 16 26 1018.8 - 0.0 - - - - - - -
01/09:30am 12.0 WSW 16 21 1018.6 - 0.0 - - - - - - -
01/09:00am 12.1 WSW 16 22 1018.3 - 18.6 - - - - - - -
01/08:30am 10.8 SW 13 17 1018.0 - 18.6 - - - - - - -
01/08:00am 9.8 WSW 16 23 1017.5 - 18.6 - - - - - - -
01/07:30am 8.9 SW 15 21 1017.2 - 18.6 - - - - - - -
01/07:00am 7.7 WSW 13 16 1016.7 - 18.6 - - - - - - -
01/06:30am 4.0 SSW 7 8 1016.2 - 18.6 - - - - - - -
01/06:00am 3.1 W 6 10 1015.6 - 18.6 - - - - - - -
01/05:30am 3.6 SSW 5 6 1015.0 - 18.6 - - - - - - -
01/05:00am 4.9 S 6 9 1014.4 - 18.6 - - - - - - -
01/04:30am 4.6 W 6 8 1014.1 - 18.6 - - - - - - -
01/04:00am 5.0 SW 6 8 1013.3 - 18.6 - - - - - - -
01/03:30am 6.8 WSW 14 19 1013.0 - 18.6 - - - - - - -
01/03:05am 7.0 WSW 15 27 1012.3 - 18.4 - - - - - - -
01/03:00am 6.8 WSW 13 16 1012.5 - 18.4 - - - - - - -
01/02:30am 6.5 SW 9 12 1011.9 - 18.2 - - - - - - -
01/02:00am 5.6 WSW 9 11 1011.4 - 17.8 - - - - - - -
01/01:30am 6.2 SW 12 15 1010.9 - 17.8 - - - - - - -
01/01:00am 5.9 WSW 12 15 1010.2 - 17.8 - - - - - - -
01/12:30am 4.9 WSW 9 13 1010.1 - 17.8 - - - - - - -
01/12:00am 5.1 SW 4 5 1009.6 - 17.8 - - - - - - -
 
Date/Time
EST
Temp

°C
Wind Pressure Rain
since 9am
mm
Weather Cloud Vis
km
Sea
Height
m
Swell
Dir
 
Speed
knots
Gust
knots
hPa Trend Height
m
Period
s
Dir
30/11:30pm 5.6 SW 7 9 1009.3 - 17.8 - - - - - - -
30/11:00pm 5.8 WSW 11 17 1009.3 - 16.6 - - - - - - -
30/10:30pm 5.7 SSW 6 8 1008.3 - 15.8 - - - - - - -
30/10:00pm 6.4 SW 6 9 1008.0 - 15.8 - - - - - - -
30/09:30pm 6.4 WSW 8 9 1007.6 - 15.8 - - - - - - -
30/09:00pm 6.7 SW 12 22 1007.0 - 15.8 - - - - - - -
30/08:30pm 7.2 WSW 16 19 1006.8 - 14.6 - - - - - - -
30/08:00pm 7.7 SW 11 20 1005.4 - 14.0 - - - - - - -
30/07:30pm 7.0 WSW 9 13 1005.1 - 13.8 - - - - - - -
30/07:00pm 7.2 WSW 11 13 1004.3 - 13.8 - - - - - - -
30/06:30pm 7.7 WSW 12 19 1003.6 - 13.6 - - - - - - -
30/06:00pm 8.0 WSW 17 21 1002.8 - 13.6 - - - - - - -
30/05:30pm 8.4 SW 20 29 1002.5 - 13.4 - - - - - - -
30/05:00pm 10.3 WSW 18 25 1001.6 - 13.4 - - - - - - -
30/04:49pm 9.8 WSW 20 30 1001.0 - 13.4 - - - - - - -
30/04:30pm 10.3 WSW 16 25 1000.4 - 13.4 - - - - - - -
30/04:00pm 8.8 W 16 22 1000.6 - 13.4 - - - - - - -
30/03:53pm 8.7 W 18 28 1000.5 - 13.4 - - - - - - -
30/03:43pm 8.7 WSW 20 31 1000.0 - 13.4 - - - - - - -
30/03:30pm 8.9 WSW 32 44 999.5 - 13.2 - - - - - - -
30/03:27pm 9.0 WSW 33 44 999.4 - 13.2 - - - - - - -
30/03:25pm 9.3 WSW 35 44 999.3 - 13.0 - - - - - - -
30/03:22pm 9.8 WSW 21 33 998.9 - 12.8 - - - - - - -
30/03:00pm 10.3 WSW 18 23 998.5 - 12.4 - - - - - - -
30/02:30pm 10.7 W 15 21 998.1 - 10.8 - - - - - - -
30/02:01pm 11.2 W 21 31 998.0 - 10.2 - - - - - - -
30/02:00pm 11.1 W 21 30 997.6 - 10.0 - - - - - - -
30/01:53pm 11.7 W 15 27 998.1 - 9.4 - - - - - - -
30/01:30pm 12.4 W 15 21 997.7 - 8.6 - - - - - - -
30/01:00pm 12.1 W 17 22 997.4 - 8.6 - - - - - - -
30/12:40pm 11.9 WNW 18 31 998.3 - 8.6 - - - - - - -
30/12:30pm 11.9 WNW 20 29 998.1 - 8.4 - - - - - - -
30/12:00pm 12.2 WNW 20 26 998.5 - 6.2 - - - - - - -
30/11:30am 13.0 NW 20 25 998.8 - 3.2 - - - - - - -
30/11:00am 13.4 NNW 19 26 999.4 - 1.4 - - - - - - -
30/10:39am 13.5 NNW 20 30 999.9 - 0.8 - - - - - - -
30/10:30am 13.4 NNW 21 30 1000.0 - 0.6 - - - - - - -
30/10:00am 14.5 NNW 21 29 1000.3 - 0.0 - - - - - - -
30/09:30am 14.1 NNW 21 27 1001.0 - 0.0 - - - - - - -
30/09:02am 14.0 NNW 19 29 1001.4 - 0.0 - - - - - - -
30/09:00am 14.1 NNW 18 27 1001.3 - 0.0 - - - - - - -
30/08:32am 14.3 NNW 18 28 1001.9 - 0.0 - - - - - - -
30/08:30am 14.4 NNW 18 23 1002.1 - 0.0 - - - - - - -
30/08:00am 13.9 NNW 19 25 1002.6 - 0.0 - - - - - - -
30/07:30am 13.4 NNW 18 25 1002.8 - 0.0 - - - - - - -
30/07:00am 13.2 NNW 17 23 1003.4 - 0.0 - - - - - - -
30/06:30am 12.9 NNW 16 24 1003.8 - 0.0 - - - - - - -
30/06:00am 12.7 NNW 14 19 1003.9 - 0.0 - - - - - - -
30/05:30am 12.5 NNW 13 16 1004.1 - 0.0 - - - - - - -
30/05:00am 12.6 NNW 14 19 1004.4 - 0.0 - - - - - - -
30/04:30am 12.4 NNW 13 19 1004.4 - 0.0 - - - - - - -
30/04:00am 12.3 NNW 12 18 1004.8 - 0.0 - - - - - - -
30/03:30am 12.2 N 10 13 1004.9 - 0.0 - - - - - - -
30/03:00am 11.7 NNW 9 12 1005.5 - 0.0 - - - - - - -
30/02:30am 11.2 NNW 9 12 1005.9 - 0.0 - - - - - - -
30/02:00am 11.2 N 8 11 1006.6 - 0.0 - - - - - - -
30/01:30am 11.2 NNW 8 9 1007.0 - 0.0 - - - - - - -
30/01:00am 11.4 NNW 10 12 1007.5 - 0.0 - - - - - - -
30/12:30am 11.9 NW 9 12 1008.0 - 0.0 - - - - - - -
30/12:00am 12.2 WNW 6 9 1008.4 - 0.0 - - - - - - -
 
Date/Time
EST
Temp

°C
Wind Pressure Rain
since 9am
mm
Weather Cloud Vis
km
Sea
Height
m
Swell
Dir
 
Speed
knots
Gust
knots
hPa Trend Height
m
Period
s
Dir
29/11:30pm 13.0 WNW 10 14 1009.2 - 0.0 - - - - - - -
29/11:00pm 13.0 NW 9 11 1009.2 - 0.0 - - - - - - -
29/10:30pm 12.9 WNW 12 17 1009.4 - 0.0 - - - - - - -
29/10:00pm 13.0 NW 8 12 1009.4 - 0.0 - - - - - - -
29/09:30pm 12.8 NW 9 12 1009.4 - 0.0 - - - - - - -
29/09:00pm 12.5 WNW 7 11 1009.3 - 0.0 - - - - - - -
29/08:30pm 11.9 WNW 8 9 1009.2 - 0.0 - - - - - - -

Other Formats:

Comma delimited format used in spreadsheet applications
http://www.bom.gov.au/fwo/IDV60701/IDV60701.94953.axf

JavaScript Object Notation format (JSON) in row-major order
http://www.bom.gov.au/fwo/IDV60701/IDV60701.94953.json